sensor_id;sensor_type;location;lat;lon;timestamp;temperature;humidity
63435;DHT22;68814;50.872;5.306;2023-08-06T00:00:26;15.10;99.90
63435;DHT22;68814;50.872;5.306;2023-08-06T00:02:52;15.10;99.90
63435;DHT22;68814;50.872;5.306;2023-08-06T00:05:18;15.10;99.90
63435;DHT22;68814;50.872;5.306;2023-08-06T00:07:49;15.10;99.90
63435;DHT22;68814;50.872;5.306;2023-08-06T00:10:15;15.10;99.90
63435;DHT22;68814;50.872;5.306;2023-08-06T00:12:41;15.10;99.90
63435;DHT22;68814;50.872;5.306;2023-08-06T00:15:07;15.10;99.90
63435;DHT22;68814;50.872;5.306;2023-08-06T00:17:34;15.10;99.90
63435;DHT22;68814;50.872;5.306;2023-08-06T00:19:59;15.10;99.90
63435;DHT22;68814;50.872;5.306;2023-08-06T00:22:33;15.20;99.90
63435;DHT22;68814;50.872;5.306;2023-08-06T00:24:59;15.10;99.90
63435;DHT22;68814;50.872;5.306;2023-08-06T00:27:26;15.10;99.90
63435;DHT22;68814;50.872;5.306;2023-08-06T00:29:51;15.10;99.90
63435;DHT22;68814;50.872;5.306;2023-08-06T00:32:18;15.10;99.90
63435;DHT22;68814;50.872;5.306;2023-08-06T00:34:43;15.20;99.90
63435;DHT22;68814;50.872;5.306;2023-08-06T00:37:09;15.20;99.90
63435;DHT22;68814;50.872;5.306;2023-08-06T00:39:35;15.20;99.90
63435;DHT22;68814;50.872;5.306;2023-08-06T00:42:01;15.20;99.90
63435;DHT22;68814;50.872;5.306;2023-08-06T00:44:27;15.20;99.90
63435;DHT22;68814;50.872;5.306;2023-08-06T00:46:52;15.20;99.90
63435;DHT22;68814;50.872;5.306;2023-08-06T00:49:18;15.20;99.90
63435;DHT22;68814;50.872;5.306;2023-08-06T00:51:44;15.20;99.90
63435;DHT22;68814;50.872;5.306;2023-08-06T00:54:10;15.20;99.90
63435;DHT22;68814;50.872;5.306;2023-08-06T00:56:37;15.30;99.90
63435;DHT22;68814;50.872;5.306;2023-08-06T00:59:04;15.30;99.90
63435;DHT22;68814;50.872;5.306;2023-08-06T01:01:30;15.30;99.90
63435;DHT22;68814;50.872;5.306;2023-08-06T01:03:56;15.30;99.90
63435;DHT22;68814;50.872;5.306;2023-08-06T01:06:38;15.30;99.90
63435;DHT22;68814;50.872;5.306;2023-08-06T01:16:51;15.30;99.90
63435;DHT22;68814;50.872;5.306;2023-08-06T01:19:18;15.30;99.90
63435;DHT22;68814;50.872;5.306;2023-08-06T01:21:44;15.30;99.90
63435;DHT22;68814;50.872;5.306;2023-08-06T01:24:11;15.30;99.90
63435;DHT22;68814;50.872;5.306;2023-08-06T01:26:45;15.30;99.90
63435;DHT22;68814;50.872;5.306;2023-08-06T01:29:39;15.30;99.90
63435;DHT22;68814;50.872;5.306;2023-08-06T01:32:08;15.20;99.90
63435;DHT22;68814;50.872;5.306;2023-08-06T01:34:37;15.20;99.90
63435;DHT22;68814;50.872;5.306;2023-08-06T01:37:04;15.20;99.90
63435;DHT22;68814;50.872;5.306;2023-08-06T01:39:33;15.20;99.90
63435;DHT22;68814;50.872;5.306;2023-08-06T01:41:59;15.20;99.90
63435;DHT22;68814;50.872;5.306;2023-08-06T01:44:24;15.20;99.90
63435;DHT22;68814;50.872;5.306;2023-08-06T01:46:50;15.20;99.90
63435;DHT22;68814;50.872;5.306;2023-08-06T01:49:16;15.20;99.90
63435;DHT22;68814;50.872;5.306;2023-08-06T01:51:41;15.20;99.90
63435;DHT22;68814;50.872;5.306;2023-08-06T01:54:07;15.20;99.90
63435;DHT22;68814;50.872;5.306;2023-08-06T01:56:33;15.10;99.90
63435;DHT22;68814;50.872;5.306;2023-08-06T01:58:58;15.20;99.90
63435;DHT22;68814;50.872;5.306;2023-08-06T02:01:24;15.20;99.90
63435;DHT22;68814;50.872;5.306;2023-08-06T02:03:50;15.20;99.90
63435;DHT22;68814;50.872;5.306;2023-08-06T02:06:16;15.20;99.90
63435;DHT22;68814;50.872;5.306;2023-08-06T02:08:41;15.20;99.90
63435;DHT22;68814;50.872;5.306;2023-08-06T02:11:07;15.20;99.90
63435;DHT22;68814;50.872;5.306;2023-08-06T02:13:33;15.20;99.90
63435;DHT22;68814;50.872;5.306;2023-08-06T02:15:58;15.20;99.90
63435;DHT22;68814;50.872;5.306;2023-08-06T02:18:24;15.20;99.90
63435;DHT22;68814;50.872;5.306;2023-08-06T02:20:57;15.20;99.90
63435;DHT22;68814;50.872;5.306;2023-08-06T02:23:23;15.30;99.90
63435;DHT22;68814;50.872;5.306;2023-08-06T02:25:48;15.30;99.90
63435;DHT22;68814;50.872;5.306;2023-08-06T02:28:14;15.30;99.90
63435;DHT22;68814;50.872;5.306;2023-08-06T02:30:40;15.30;99.90
63435;DHT22;68814;50.872;5.306;2023-08-06T02:33:14;15.30;99.90
63435;DHT22;68814;50.872;5.306;2023-08-06T02:35:40;15.40;99.90
63435;DHT22;68814;50.872;5.306;2023-08-06T02:38:05;15.30;99.90
63435;DHT22;68814;50.872;5.306;2023-08-06T02:40:31;15.40;99.90
63435;DHT22;68814;50.872;5.306;2023-08-06T02:42:57;15.40;99.90
63435;DHT22;68814;50.872;5.306;2023-08-06T02:45:22;15.40;99.90
63435;DHT22;68814;50.872;5.306;2023-08-06T02:47:48;15.50;99.90
63435;DHT22;68814;50.872;5.306;2023-08-06T02:50:14;15.50;99.90
63435;DHT22;68814;50.872;5.306;2023-08-06T02:52:39;15.50;99.90
63435;DHT22;68814;50.872;5.306;2023-08-06T02:55:06;15.50;99.90
63435;DHT22;68814;50.872;5.306;2023-08-06T02:57:32;15.60;99.90
63435;DHT22;68814;50.872;5.306;2023-08-06T02:59:58;15.60;99.90
63435;DHT22;68814;50.872;5.306;2023-08-06T03:02:23;15.60;99.90
63435;DHT22;68814;50.872;5.306;2023-08-06T03:04:49;15.60;99.90
63435;DHT22;68814;50.872;5.306;2023-08-06T03:07:14;15.60;99.90
63435;DHT22;68814;50.872;5.306;2023-08-06T03:09:40;15.60;99.90
63435;DHT22;68814;50.872;5.306;2023-08-06T03:12:06;15.60;99.90
63435;DHT22;68814;50.872;5.306;2023-08-06T03:14:32;15.60;99.90
63435;DHT22;68814;50.872;5.306;2023-08-06T03:16:58;15.60;99.90
63435;DHT22;68814;50.872;5.306;2023-08-06T03:19:23;15.50;99.90
63435;DHT22;68814;50.872;5.306;2023-08-06T03:21:49;15.50;99.90
63435;DHT22;68814;50.872;5.306;2023-08-06T03:24:14;15.50;99.90
63435;DHT22;68814;50.872;5.306;2023-08-06T03:26:40;15.50;99.90
63435;DHT22;68814;50.872;5.306;2023-08-06T03:29:06;15.40;99.90
63435;DHT22;68814;50.872;5.306;2023-08-06T03:31:31;15.40;99.90
63435;DHT22;68814;50.872;5.306;2023-08-06T03:33:57;15.40;99.90
63435;DHT22;68814;50.872;5.306;2023-08-06T03:36:23;15.50;99.90
63435;DHT22;68814;50.872;5.306;2023-08-06T03:38:48;15.50;99.90
63435;DHT22;68814;50.872;5.306;2023-08-06T03:41:14;15.40;99.90
63435;DHT22;68814;50.872;5.306;2023-08-06T03:43:40;15.40;99.90
63435;DHT22;68814;50.872;5.306;2023-08-06T03:46:05;15.50;99.90
63435;DHT22;68814;50.872;5.306;2023-08-06T03:48:31;15.50;99.90
63435;DHT22;68814;50.872;5.306;2023-08-06T03:50:57;15.50;99.90
63435;DHT22;68814;50.872;5.306;2023-08-06T03:53:22;15.50;99.90
63435;DHT22;68814;50.872;5.306;2023-08-06T03:55:48;15.50;99.90
63435;DHT22;68814;50.872;5.306;2023-08-06T03:58:14;15.60;99.90
63435;DHT22;68814;50.872;5.306;2023-08-06T04:00:39;15.60;99.90
63435;DHT22;68814;50.872;5.306;2023-08-06T04:03:05;15.60;99.90
63435;DHT22;68814;50.872;5.306;2023-08-06T04:05:31;15.60;99.90
63435;DHT22;68814;50.872;5.306;2023-08-06T04:07:58;15.60;99.90
63435;DHT22;68814;50.872;5.306;2023-08-06T04:10:25;15.60;99.90
63435;DHT22;68814;50.872;5.306;2023-08-06T04:12:50;15.60;99.90
63435;DHT22;68814;50.872;5.306;2023-08-06T04:15:16;15.60;99.90
63435;DHT22;68814;50.872;5.306;2023-08-06T04:17:42;15.60;99.90
63435;DHT22;68814;50.872;5.306;2023-08-06T04:20:08;15.60;99.90
63435;DHT22;68814;50.872;5.306;2023-08-06T04:22:34;15.60;99.90
63435;DHT22;68814;50.872;5.306;2023-08-06T04:24:59;15.60;99.90
63435;DHT22;68814;50.872;5.306;2023-08-06T04:27:25;15.60;99.90
63435;DHT22;68814;50.872;5.306;2023-08-06T04:29:51;15.60;99.90
63435;DHT22;68814;50.872;5.306;2023-08-06T04:32:17;15.50;99.90
63435;DHT22;68814;50.872;5.306;2023-08-06T04:34:44;15.60;99.90
63435;DHT22;68814;50.872;5.306;2023-08-06T04:37:10;15.60;99.90
63435;DHT22;68814;50.872;5.306;2023-08-06T04:39:36;15.50;99.90
63435;DHT22;68814;50.872;5.306;2023-08-06T04:42:02;15.60;99.90
63435;DHT22;68814;50.872;5.306;2023-08-06T04:44:28;15.50;99.90
63435;DHT22;68814;50.872;5.306;2023-08-06T04:46:54;15.50;99.90
63435;DHT22;68814;50.872;5.306;2023-08-06T04:49:22;15.50;99.90
63435;DHT22;68814;50.872;5.306;2023-08-06T04:51:48;15.50;99.90
63435;DHT22;68814;50.872;5.306;2023-08-06T04:54:14;15.40;99.90
63435;DHT22;68814;50.872;5.306;2023-08-06T04:56:39;15.40;99.90
63435;DHT22;68814;50.872;5.306;2023-08-06T04:59:05;15.40;99.90
63435;DHT22;68814;50.872;5.306;2023-08-06T05:01:31;15.40;99.90
63435;DHT22;68814;50.872;5.306;2023-08-06T05:03:57;15.40;99.90
63435;DHT22;68814;50.872;5.306;2023-08-06T05:06:23;15.40;99.90
63435;DHT22;68814;50.872;5.306;2023-08-06T05:08:49;15.40;99.90
63435;DHT22;68814;50.872;5.306;2023-08-06T05:11:14;15.40;99.90
63435;DHT22;68814;50.872;5.306;2023-08-06T05:13:40;15.50;99.90
63435;DHT22;68814;50.872;5.306;2023-08-06T05:16:06;15.40;99.90
63435;DHT22;68814;50.872;5.306;2023-08-06T05:18:31;15.40;99.90
63435;DHT22;68814;50.872;5.306;2023-08-06T05:20:59;15.40;99.90
63435;DHT22;68814;50.872;5.306;2023-08-06T05:23:25;15.40;99.90
63435;DHT22;68814;50.872;5.306;2023-08-06T05:25:51;15.40;99.90
63435;DHT22;68814;50.872;5.306;2023-08-06T05:28:17;15.40;99.90
63435;DHT22;68814;50.872;5.306;2023-08-06T05:30:42;15.40;99.90
63435;DHT22;68814;50.872;5.306;2023-08-06T05:33:08;15.40;99.90
63435;DHT22;68814;50.872;5.306;2023-08-06T05:35:34;15.40;99.90
63435;DHT22;68814;50.872;5.306;2023-08-06T05:38:00;15.40;99.90
63435;DHT22;68814;50.872;5.306;2023-08-06T05:40:26;15.40;99.90
63435;DHT22;68814;50.872;5.306;2023-08-06T05:42:55;15.40;99.90
63435;DHT22;68814;50.872;5.306;2023-08-06T05:45:21;15.40;99.90
63435;DHT22;68814;50.872;5.306;2023-08-06T05:47:48;15.40;99.90
63435;DHT22;68814;50.872;5.306;2023-08-06T05:50:14;15.40;99.90
63435;DHT22;68814;50.872;5.306;2023-08-06T05:52:40;15.40;99.90
63435;DHT22;68814;50.872;5.306;2023-08-06T05:55:06;15.30;99.90
63435;DHT22;68814;50.872;5.306;2023-08-06T07:10:09;14.20;99.90
63435;DHT22;68814;50.872;5.306;2023-08-06T07:28:07;14.40;99.90
63435;DHT22;68814;50.872;5.306;2023-08-06T07:33:08;14.40;99.90
63435;DHT22;68814;50.872;5.306;2023-08-06T07:35:43;14.40;99.90
63435;DHT22;68814;50.872;5.306;2023-08-06T07:38:10;14.50;99.90
63435;DHT22;68814;50.872;5.306;2023-08-06T07:43:13;14.50;99.90
63435;DHT22;68814;50.872;5.306;2023-08-06T07:56:10;14.50;99.90
63435;DHT22;68814;50.872;5.306;2023-08-06T08:03:54;14.60;99.90
63435;DHT22;68814;50.872;5.306;2023-08-06T08:15:17;14.80;99.90
63435;DHT22;68814;50.872;5.306;2023-08-06T08:21:06;14.90;99.90
63435;DHT22;68814;50.872;5.306;2023-08-06T08:28:46;15.10;99.90
63435;DHT22;68814;50.872;5.306;2023-08-06T08:31:15;15.10;99.90
63435;DHT22;68814;50.872;5.306;2023-08-06T08:33:42;15.10;99.90
63435;DHT22;68814;50.872;5.306;2023-08-06T08:36:07;15.10;99.90
63435;DHT22;68814;50.872;5.306;2023-08-06T08:38:35;15.10;99.90
63435;DHT22;68814;50.872;5.306;2023-08-06T08:41:01;15.10;99.90
63435;DHT22;68814;50.872;5.306;2023-08-06T08:43:29;15.10;99.90
63435;DHT22;68814;50.872;5.306;2023-08-06T08:46:19;15.10;99.90
63435;DHT22;68814;50.872;5.306;2023-08-06T08:51:21;15.00;99.90
63435;DHT22;68814;50.872;5.306;2023-08-06T08:53:47;15.00;99.90
63435;DHT22;68814;50.872;5.306;2023-08-06T09:06:37;15.00;99.90
63435;DHT22;68814;50.872;5.306;2023-08-06T09:26:32;15.10;99.90
63435;DHT22;68814;50.872;5.306;2023-08-06T09:29:22;15.20;99.90
63435;DHT22;68814;50.872;5.306;2023-08-06T09:31:56;15.20;99.90
63435;DHT22;68814;50.872;5.306;2023-08-06T09:34:31;15.20;99.90
63435;DHT22;68814;50.872;5.306;2023-08-06T09:37:19;15.30;99.90
63435;DHT22;68814;50.872;5.306;2023-08-06T09:39:52;15.20;99.90
63435;DHT22;68814;50.872;5.306;2023-08-06T09:42:42;15.20;99.90
63435;DHT22;68814;50.872;5.306;2023-08-06T09:50:21;15.10;99.90
63435;DHT22;68814;50.872;5.306;2023-08-06T09:52:47;15.10;99.90
63435;DHT22;68814;50.872;5.306;2023-08-06T09:55:16;15.10;99.90
63435;DHT22;68814;50.872;5.306;2023-08-06T09:57:43;15.10;99.90
63435;DHT22;68814;50.872;5.306;2023-08-06T10:00:10;15.10;99.90
63435;DHT22;68814;50.872;5.306;2023-08-06T10:02:40;15.10;99.90
63435;DHT22;68814;50.872;5.306;2023-08-06T10:05:07;15.10;99.90
63435;DHT22;68814;50.872;5.306;2023-08-06T10:07:33;15.10;99.90
63435;DHT22;68814;50.872;5.306;2023-08-06T10:10:00;15.10;99.90
63435;DHT22;68814;50.872;5.306;2023-08-06T10:12:28;15.20;99.90
63435;DHT22;68814;50.872;5.306;2023-08-06T10:14:57;15.20;99.90
63435;DHT22;68814;50.872;5.306;2023-08-06T10:17:25;15.20;99.90
63435;DHT22;68814;50.872;5.306;2023-08-06T10:19:52;15.20;99.90
63435;DHT22;68814;50.872;5.306;2023-08-06T10:22:22;15.20;99.90
63435;DHT22;68814;50.872;5.306;2023-08-06T10:24:56;15.20;99.90
63435;DHT22;68814;50.872;5.306;2023-08-06T10:33:43;15.00;99.90
63435;DHT22;68814;50.872;5.306;2023-08-06T10:36:10;15.00;99.90
63435;DHT22;68814;50.872;5.306;2023-08-06T10:38:46;15.00;99.90
63435;DHT22;68814;50.872;5.306;2023-08-06T10:41:29;15.00;99.90
63435;DHT22;68814;50.872;5.306;2023-08-06T10:46:54;14.90;99.90
63435;DHT22;68814;50.872;5.306;2023-08-06T10:49:36;14.90;99.90
63435;DHT22;68814;50.872;5.306;2023-08-06T11:35:57;14.80;99.90
63435;DHT22;68814;50.872;5.306;2023-08-06T11:43:34;14.80;99.90
63435;DHT22;68814;50.872;5.306;2023-08-06T11:46:00;14.90;99.90
63435;DHT22;68814;50.872;5.306;2023-08-06T11:48:25;14.90;99.90
63435;DHT22;68814;50.872;5.306;2023-08-06T11:50:54;14.90;99.90
63435;DHT22;68814;50.872;5.306;2023-08-06T11:53:20;14.90;99.90
63435;DHT22;68814;50.872;5.306;2023-08-06T11:55:46;15.00;99.90
63435;DHT22;68814;50.872;5.306;2023-08-06T11:58:12;14.90;99.90
63435;DHT22;68814;50.872;5.306;2023-08-06T12:00:38;14.90;99.90
63435;DHT22;68814;50.872;5.306;2023-08-06T12:03:05;15.00;99.90
63435;DHT22;68814;50.872;5.306;2023-08-06T12:05:31;14.90;99.90
63435;DHT22;68814;50.872;5.306;2023-08-06T12:08:00;15.00;99.90
63435;DHT22;68814;50.872;5.306;2023-08-06T12:10:27;14.90;99.90
63435;DHT22;68814;50.872;5.306;2023-08-06T12:12:53;15.00;99.90
63435;DHT22;68814;50.872;5.306;2023-08-06T12:15:19;15.00;99.90
63435;DHT22;68814;50.872;5.306;2023-08-06T13:59:24;14.60;99.90
63435;DHT22;68814;50.872;5.306;2023-08-06T14:01:50;14.50;99.90
63435;DHT22;68814;50.872;5.306;2023-08-06T14:17:41;14.30;99.90
63435;DHT22;68814;50.872;5.306;2023-08-06T15:09:19;13.90;99.90
63435;DHT22;68814;50.872;5.306;2023-08-06T15:35:43;14.00;99.90
63435;DHT22;68814;50.872;5.306;2023-08-06T16:46:19;14.00;99.90
63435;DHT22;68814;50.872;5.306;2023-08-06T16:49:57;14.00;99.90
63435;DHT22;68814;50.872;5.306;2023-08-06T17:21:37;14.20;99.90
63435;DHT22;68814;50.872;5.306;2023-08-06T17:24:08;14.20;99.90
63435;DHT22;68814;50.872;5.306;2023-08-06T17:26:50;14.20;99.90
63435;DHT22;68814;50.872;5.306;2023-08-06T17:29:27;14.20;99.90
63435;DHT22;68814;50.872;5.306;2023-08-06T17:32:00;14.20;99.90
63435;DHT22;68814;50.872;5.306;2023-08-06T18:03:51;14.10;99.90
63435;DHT22;68814;50.872;5.306;2023-08-06T18:06:37;14.00;99.90
63435;DHT22;68814;50.872;5.306;2023-08-06T18:16:03;14.00;99.90
63435;DHT22;68814;50.872;5.306;2023-08-06T18:29:49;14.00;99.90
63435;DHT22;68814;50.872;5.306;2023-08-06T18:39:14;13.90;99.90
63435;DHT22;68814;50.872;5.306;2023-08-06T18:41:40;13.90;99.90
63435;DHT22;68814;50.872;5.306;2023-08-06T18:44:15;13.90;99.90
63435;DHT22;68814;50.872;5.306;2023-08-06T18:46:44;13.90;99.90
63435;DHT22;68814;50.872;5.306;2023-08-06T18:49:17;13.80;99.90
63435;DHT22;68814;50.872;5.306;2023-08-06T18:51:50;13.80;99.90
63435;DHT22;68814;50.872;5.306;2023-08-06T18:54:34;13.70;99.90
63435;DHT22;68814;50.872;5.306;2023-08-06T18:57:06;13.60;99.90
63435;DHT22;68814;50.872;5.306;2023-08-06T18:59:56;13.60;99.90
63435;DHT22;68814;50.872;5.306;2023-08-06T19:06:34;13.60;99.90
63435;DHT22;68814;50.872;5.306;2023-08-06T19:09:06;13.60;99.90
63435;DHT22;68814;50.872;5.306;2023-08-06T19:11:47;13.60;99.90
63435;DHT22;68814;50.872;5.306;2023-08-06T19:14:24;13.60;99.90
63435;DHT22;68814;50.872;5.306;2023-08-06T19:16:54;13.60;99.90
63435;DHT22;68814;50.872;5.306;2023-08-06T19:19:24;13.60;99.90
63435;DHT22;68814;50.872;5.306;2023-08-06T19:22:22;13.60;99.90
63435;DHT22;68814;50.872;5.306;2023-08-06T19:24:48;13.60;99.90
63435;DHT22;68814;50.872;5.306;2023-08-06T19:27:14;13.60;99.20
63435;DHT22;68814;50.872;5.306;2023-08-06T19:29:43;13.60;99.30
63435;DHT22;68814;50.872;5.306;2023-08-06T19:32:11;13.60;98.90
63435;DHT22;68814;50.872;5.306;2023-08-06T19:34:39;13.60;99.20
63435;DHT22;68814;50.872;5.306;2023-08-06T19:37:06;13.60;99.50
63435;DHT22;68814;50.872;5.306;2023-08-06T19:46:14;13.60;99.90
63435;DHT22;68814;50.872;5.306;2023-08-06T19:48:40;13.60;99.90
63435;DHT22;68814;50.872;5.306;2023-08-06T19:51:09;13.50;99.90
63435;DHT22;68814;50.872;5.306;2023-08-06T19:53:35;13.50;99.90
63435;DHT22;68814;50.872;5.306;2023-08-06T19:56:02;13.50;99.90
63435;DHT22;68814;50.872;5.306;2023-08-06T19:58:30;13.50;99.90
63435;DHT22;68814;50.872;5.306;2023-08-06T20:00:56;13.50;99.90
63435;DHT22;68814;50.872;5.306;2023-08-06T20:03:23;13.50;99.90
63435;DHT22;68814;50.872;5.306;2023-08-06T20:05:50;13.40;99.90
63435;DHT22;68814;50.872;5.306;2023-08-06T20:08:18;13.40;99.90
63435;DHT22;68814;50.872;5.306;2023-08-06T20:10:49;13.40;99.90
63435;DHT22;68814;50.872;5.306;2023-08-06T20:13:19;13.40;99.90
63435;DHT22;68814;50.872;5.306;2023-08-06T20:15:47;13.40;99.90
63435;DHT22;68814;50.872;5.306;2023-08-06T20:18:21;13.50;99.90
63435;DHT22;68814;50.872;5.306;2023-08-06T20:20:53;13.40;99.90
63435;DHT22;68814;50.872;5.306;2023-08-06T20:23:19;13.40;99.90
63435;DHT22;68814;50.872;5.306;2023-08-06T20:25:45;13.40;99.90
63435;DHT22;68814;50.872;5.306;2023-08-06T20:28:13;13.40;99.90
63435;DHT22;68814;50.872;5.306;2023-08-06T20:30:42;13.40;99.90
63435;DHT22;68814;50.872;5.306;2023-08-06T20:33:12;13.40;99.90
63435;DHT22;68814;50.872;5.306;2023-08-06T20:35:39;13.40;99.90
63435;DHT22;68814;50.872;5.306;2023-08-06T20:38:08;13.40;99.90
63435;DHT22;68814;50.872;5.306;2023-08-06T20:40:35;13.40;99.90
63435;DHT22;68814;50.872;5.306;2023-08-06T20:43:01;13.40;99.90
63435;DHT22;68814;50.872;5.306;2023-08-06T20:45:27;13.40;99.90
63435;DHT22;68814;50.872;5.306;2023-08-06T20:47:54;13.40;99.90
63435;DHT22;68814;50.872;5.306;2023-08-06T20:50:20;13.40;99.90
63435;DHT22;68814;50.872;5.306;2023-08-06T20:52:46;13.40;99.90
63435;DHT22;68814;50.872;5.306;2023-08-06T20:55:15;13.40;99.90
63435;DHT22;68814;50.872;5.306;2023-08-06T20:57:41;13.40;99.90
63435;DHT22;68814;50.872;5.306;2023-08-06T21:00:12;13.40;99.90
63435;DHT22;68814;50.872;5.306;2023-08-06T21:02:38;13.30;99.90
63435;DHT22;68814;50.872;5.306;2023-08-06T21:05:04;13.30;99.90
63435;DHT22;68814;50.872;5.306;2023-08-06T21:07:30;13.30;99.90
63435;DHT22;68814;50.872;5.306;2023-08-06T21:09:56;13.30;99.90
63435;DHT22;68814;50.872;5.306;2023-08-06T21:12:25;13.20;99.90
63435;DHT22;68814;50.872;5.306;2023-08-06T21:14:51;13.20;99.90
63435;DHT22;68814;50.872;5.306;2023-08-06T21:17:18;13.20;99.90
63435;DHT22;68814;50.872;5.306;2023-08-06T21:19:44;13.20;99.90
63435;DHT22;68814;50.872;5.306;2023-08-06T21:22:11;13.20;99.90
63435;DHT22;68814;50.872;5.306;2023-08-06T21:24:37;13.10;99.90
63435;DHT22;68814;50.872;5.306;2023-08-06T21:27:04;13.10;99.90
63435;DHT22;68814;50.872;5.306;2023-08-06T21:29:30;13.10;99.90
63435;DHT22;68814;50.872;5.306;2023-08-06T21:31:58;13.00;99.90
63435;DHT22;68814;50.872;5.306;2023-08-06T21:34:24;13.00;99.90
63435;DHT22;68814;50.872;5.306;2023-08-06T21:36:50;13.00;99.90
63435;DHT22;68814;50.872;5.306;2023-08-06T21:39:16;13.00;99.90
63435;DHT22;68814;50.872;5.306;2023-08-06T21:41:42;12.90;99.90
63435;DHT22;68814;50.872;5.306;2023-08-06T21:44:08;12.90;99.90
63435;DHT22;68814;50.872;5.306;2023-08-06T21:46:35;12.90;99.90
63435;DHT22;68814;50.872;5.306;2023-08-06T21:49:01;12.90;99.90
63435;DHT22;68814;50.872;5.306;2023-08-06T21:51:27;12.80;99.90
63435;DHT22;68814;50.872;5.306;2023-08-06T21:53:53;12.80;99.90
63435;DHT22;68814;50.872;5.306;2023-08-06T21:56:18;12.80;99.90
63435;DHT22;68814;50.872;5.306;2023-08-06T21:58:50;12.70;99.90
63435;DHT22;68814;50.872;5.306;2023-08-06T22:01:18;12.70;99.90
63435;DHT22;68814;50.872;5.306;2023-08-06T22:03:44;12.70;99.90
63435;DHT22;68814;50.872;5.306;2023-08-06T22:06:11;12.60;99.90
63435;DHT22;68814;50.872;5.306;2023-08-06T22:08:58;12.60;99.90
63435;DHT22;68814;50.872;5.306;2023-08-06T22:11:23;12.60;99.90
63435;DHT22;68814;50.872;5.306;2023-08-06T22:13:50;12.60;99.90
63435;DHT22;68814;50.872;5.306;2023-08-06T22:16:15;12.60;99.90
63435;DHT22;68814;50.872;5.306;2023-08-06T22:18:41;12.60;99.90
63435;DHT22;68814;50.872;5.306;2023-08-06T22:21:07;12.60;99.90
63435;DHT22;68814;50.872;5.306;2023-08-06T22:23:33;12.60;99.90
63435;DHT22;68814;50.872;5.306;2023-08-06T22:25:59;12.60;99.90
63435;DHT22;68814;50.872;5.306;2023-08-06T22:28:25;12.60;99.90
63435;DHT22;68814;50.872;5.306;2023-08-06T22:30:52;12.60;99.90
63435;DHT22;68814;50.872;5.306;2023-08-06T22:33:18;12.60;99.90
63435;DHT22;68814;50.872;5.306;2023-08-06T22:35:44;12.60;99.90
63435;DHT22;68814;50.872;5.306;2023-08-06T22:38:11;12.60;99.90
63435;DHT22;68814;50.872;5.306;2023-08-06T22:40:38;12.60;99.90
63435;DHT22;68814;50.872;5.306;2023-08-06T22:43:05;12.60;99.90
63435;DHT22;68814;50.872;5.306;2023-08-06T22:45:31;12.70;99.90
63435;DHT22;68814;50.872;5.306;2023-08-06T22:47:57;12.60;99.90
63435;DHT22;68814;50.872;5.306;2023-08-06T22:50:22;12.60;99.90
63435;DHT22;68814;50.872;5.306;2023-08-06T22:52:48;12.60;99.90
63435;DHT22;68814;50.872;5.306;2023-08-06T22:55:14;12.60;99.90
63435;DHT22;68814;50.872;5.306;2023-08-06T22:57:40;12.70;99.90
63435;DHT22;68814;50.872;5.306;2023-08-06T23:00:08;12.60;99.90
63435;DHT22;68814;50.872;5.306;2023-08-06T23:02:34;12.70;99.90
63435;DHT22;68814;50.872;5.306;2023-08-06T23:05:04;12.70;99.90
63435;DHT22;68814;50.872;5.306;2023-08-06T23:07:33;12.70;99.90
63435;DHT22;68814;50.872;5.306;2023-08-06T23:10:00;12.70;99.90
63435;DHT22;68814;50.872;5.306;2023-08-06T23:12:26;12.80;99.90
63435;DHT22;68814;50.872;5.306;2023-08-06T23:14:53;12.80;99.90
63435;DHT22;68814;50.872;5.306;2023-08-06T23:17:20;12.80;99.90
63435;DHT22;68814;50.872;5.306;2023-08-06T23:19:47;12.80;99.90
63435;DHT22;68814;50.872;5.306;2023-08-06T23:22:13;12.80;99.80
63435;DHT22;68814;50.872;5.306;2023-08-06T23:24:41;12.90;99.80
63435;DHT22;68814;50.872;5.306;2023-08-06T23:27:13;12.90;99.80
63435;DHT22;68814;50.872;5.306;2023-08-06T23:29:39;12.90;99.60
63435;DHT22;68814;50.872;5.306;2023-08-06T23:32:05;12.90;99.80
63435;DHT22;68814;50.872;5.306;2023-08-06T23:34:32;12.90;99.80
63435;DHT22;68814;50.872;5.306;2023-08-06T23:36:58;12.80;99.90
63435;DHT22;68814;50.872;5.306;2023-08-06T23:39:24;12.80;99.90
63435;DHT22;68814;50.872;5.306;2023-08-06T23:41:50;12.80;99.90
63435;DHT22;68814;50.872;5.306;2023-08-06T23:44:16;12.70;99.90
63435;DHT22;68814;50.872;5.306;2023-08-06T23:46:42;12.80;99.90
63435;DHT22;68814;50.872;5.306;2023-08-06T23:49:07;12.70;99.90
63435;DHT22;68814;50.872;5.306;2023-08-06T23:51:33;12.70;99.90
63435;DHT22;68814;50.872;5.306;2023-08-06T23:53:59;12.70;99.90
63435;DHT22;68814;50.872;5.306;2023-08-06T23:56:25;12.70;99.90
63435;DHT22;68814;50.872;5.306;2023-08-06T23:58:51;12.70;99.90
